Time;durP1;ratioP1;P1;durP2;ratioP2;P2;SDS_P1;SDS_P2;PMS_P1;PMS_P2;Temp;Humidity;BMP_temperature;BMP_pressure;BME280_temperature;BME280_humidity;BME280_pressure;Samples;Min_cycle;Max_cycle;Signal;HPM_P1;HPM_P2
2021/05/11 00:01:06;;;;;;;20.25;5.70;;;;;;;14.21;62.10;100732.03;5103843;28;20034;-60
2021/05/11 00:03:32;;;;;;;20.30;5.68;;;;;;;14.19;63.19;100722.28;5101897;28;20073;-60
2021/05/11 00:05:57;;;;;;;22.73;6.10;;;;;;;14.15;62.36;100723.22;5105158;28;20036;-64
2021/05/11 00:08:23;;;;;;;22.23;6.50;;;;;;;14.05;60.80;100717.13;5101384;28;20028;-66
2021/05/11 00:10:48;;;;;;;23.20;6.88;;;;;;;14.03;61.63;100721.59;5104083;28;20038;-63
2021/05/11 00:13:13;;;;;;;23.65;7.07;;;;;;;14.03;61.19;100721.59;5102986;28;20115;-65
2021/05/11 00:15:39;;;;;;;23.60;6.53;;;;;;;13.99;61.97;100731.38;5102579;28;20026;-66
2021/05/11 00:18:04;;;;;;;23.65;7.07;;;;;;;13.87;63.52;100727.06;5104254;28;20024;-65
2021/05/11 00:20:29;;;;;;;21.30;6.40;;;;;;;13.84;60.89;100721.81;5101376;28;20020;-66
2021/05/11 00:22:55;;;;;;;23.35;6.47;;;;;;;13.81;60.82;100721.84;5104850;28;20035;-66
2021/05/11 00:25:20;;;;;;;22.35;6.70;;;;;;;13.82;64.28;100720.06;5101992;28;20024;-66
2021/05/11 00:27:46;;;;;;;20.63;6.45;;;;;;;13.82;64.74;100726.28;5104143;28;20464;-66
2021/05/11 00:30:11;;;;;;;22.10;6.40;;;;;;;13.76;64.56;100728.97;5102985;28;20484;-65
2021/05/11 00:32:37;;;;;;;20.33;6.05;;;;;;;13.72;65.23;100728.13;5102629;28;20490;-66
2021/05/11 00:35:03;;;;;;;21.77;6.40;;;;;;;13.77;63.53;100730.75;5104344;28;20100;-66
2021/05/11 00:37:28;;;;;;;21.80;6.35;;;;;;;13.74;63.19;100722.81;5101209;28;20032;-65
2021/05/11 00:39:54;;;;;;;22.48;6.50;;;;;;;13.76;62.92;100728.97;5097001;28;20059;-65
2021/05/11 00:42:19;;;;;;;24.42;7.18;;;;;;;13.70;63.64;100729.94;5103786;28;20015;-65
2021/05/11 00:44:44;;;;;;;24.00;7.15;;;;;;;13.72;64.75;100721.94;5102497;28;20023;-65
2021/05/11 00:47:10;;;;;;;21.63;6.30;;;;;;;13.63;67.45;100712.31;5102545;28;20020;-65
2021/05/11 00:49:36;;;;;;;23.40;6.57;;;;;;;13.59;68.00;100721.19;5103437;28;20110;-68
2021/05/11 00:52:04;;;;;;;21.48;6.82;;;;;;;13.56;67.83;100716.78;5101623;28;20028;-65
2021/05/11 00:54:30;;;;;;;23.73;7.05;;;;;;;13.64;66.33;100703.41;5104541;28;20023;-66
2021/05/11 00:56:56;;;;;;;21.67;7.15;;;;;;;13.70;66.08;100705.13;5100864;28;20070;-65
2021/05/11 00:59:26;;;;;;;22.83;7.53;;;;;;;13.60;65.30;100713.22;5102776;28;20074;-65
2021/05/11 01:01:58;;;;;;;26.15;7.63;;;;;;;13.57;66.85;100701.72;5101018;28;20028;-66
2021/05/11 01:04:24;;;;;;;24.55;7.70;;;;;;;13.42;67.15;100703.63;5104190;28;20488;-66
2021/05/11 01:06:50;;;;;;;24.02;7.55;;;;;;;13.37;67.81;100699.28;5101393;28;20071;-66
2021/05/11 01:09:15;;;;;;;23.85;7.70;;;;;;;13.41;67.61;100706.31;5103247;28;20048;-66
2021/05/11 01:11:42;;;;;;;22.90;7.95;;;;;;;13.45;65.87;100694.75;5102480;28;20038;-66
2021/05/11 01:14:07;;;;;;;23.27;8.18;;;;;;;13.48;65.19;100694.72;5102005;28;20431;-64
2021/05/11 01:16:33;;;;;;;24.15;8.13;;;;;;;13.48;65.93;100697.38;5103796;28;20055;-66
2021/05/11 01:19:05;;;;;;;23.73;8.20;;;;;;;13.50;66.36;100690.31;5100803;28;20032;-65
2021/05/11 01:46:06;;;;;;;23.17;8.75;;;;;;;12.79;72.50;100690.88;5100420;28;20035;-60
2021/05/11 01:48:22;;;;;;;24.30;8.50;;;;;;;12.59;72.93;100692.78;5103282;28;20028;-60
2021/05/11 02:23:20;;;;;;;24.35;10.13;;;;;;;12.46;73.24;100702.56;5063871;28;20088;-66
2021/05/11 02:25:45;;;;;;;27.77;10.27;;;;;;;12.49;73.70;100698.13;5061987;28;20395;-66
2021/05/11 02:28:11;;;;;;;24.85;9.93;;;;;;;12.43;74.70;100713.19;5062352;28;20040;-66
2021/05/11 02:30:37;;;;;;;23.10;9.88;;;;;;;12.34;76.12;100704.41;5063130;28;20109;-65
2021/05/11 02:33:02;;;;;;;27.20;10.13;;;;;;;12.34;76.29;100706.19;5060883;28;20078;-66
2021/05/11 02:35:28;;;;;;;24.63;9.82;;;;;;;12.31;75.99;100707.06;5064270;28;20081;-66
2021/05/11 02:37:54;;;;;;;27.45;9.80;;;;;;;12.41;75.06;100704.34;5060621;28;20068;-66
2021/05/11 02:40:21;;;;;;;26.10;9.30;;;;;;;12.35;75.05;100697.34;5056097;28;20135;-66
2021/05/11 02:42:48;;;;;;;26.10;9.88;;;;;;;12.39;74.99;100701.72;5052368;28;20048;-66
2021/05/11 02:45:14;;;;;;;24.98;9.82;;;;;;;12.31;75.27;100699.13;5052214;28;20068;-60
2021/05/11 02:47:48;;;;;;;23.73;9.27;;;;;;;12.24;75.74;100700.03;5051962;28;20033;-60
2021/05/11 02:50:19;;;;;;;23.35;8.95;;;;;;;12.21;75.29;100706.22;5052287;28;20381;-60
2021/05/11 02:52:46;;;;;;;26.27;9.10;;;;;;;12.18;75.70;100708.03;5052260;28;20072;-59
2021/05/11 02:55:12;;;;;;;24.95;8.70;;;;;;;12.18;75.32;100706.25;5052078;28;20116;-60
2021/05/11 02:57:38;;;;;;;27.13;9.45;;;;;;;12.19;75.36;100718.59;5054419;28;20032;-60
2021/05/11 03:00:05;;;;;;;25.00;9.20;;;;;;;12.17;75.11;100716.84;5054069;28;20373;-62
2021/05/11 03:02:30;;;;;;;25.80;9.40;;;;;;;12.18;75.71;100719.50;5053951;28;20028;-62
2021/05/11 03:04:56;;;;;;;24.42;9.65;;;;;;;12.14;76.16;100712.44;5054043;28;20029;-60
2021/05/11 03:07:21;;;;;;;25.15;10.10;;;;;;;12.16;76.11;100707.16;5053801;28;20025;-60
2021/05/11 03:09:46;;;;;;;26.90;9.85;;;;;;;12.17;75.62;100715.09;5053689;28;20120;-62
2021/05/11 03:12:12;;;;;;;26.55;10.10;;;;;;;12.28;75.86;100695.63;5054134;28;20021;-62
2021/05/11 03:14:37;;;;;;;28.45;10.13;;;;;;;12.32;74.60;100705.28;5053879;28;20025;-62
2021/05/11 03:17:02;;;;;;;25.15;9.90;;;;;;;12.30;75.37;100701.78;5053558;28;20047;-62
2021/05/11 03:19:28;;;;;;;26.50;10.10;;;;;;;12.20;74.28;100696.53;5053862;28;20039;-62
2021/05/11 03:21:53;;;;;;;27.58;10.68;;;;;;;12.27;74.08;100692.06;5053609;28;20025;-62
2021/05/11 03:24:18;;;;;;;30.13;11.43;;;;;;;12.30;71.67;100691.16;5053444;28;20029;-62
2021/05/11 03:26:44;;;;;;;26.15;9.95;;;;;;;12.29;71.14;100690.31;5053561;28;20502;-60
2021/05/11 03:29:13;;;;;;;25.00;9.93;;;;;;;12.33;70.82;100684.09;5053533;28;20101;-60
2021/05/11 03:31:38;;;;;;;26.45;9.25;;;;;;;12.35;70.81;100686.75;5053431;28;20132;-60
2021/05/11 03:34:04;;;;;;;27.90;9.35;;;;;;;12.37;70.97;100688.47;5053598;28;20029;-62
2021/05/11 03:36:29;;;;;;;24.10;9.70;;;;;;;12.36;70.44;100692.03;5053319;28;20451;-60
2021/05/11 03:38:55;;;;;;;25.58;9.25;;;;;;;12.38;71.03;100694.69;5058140;28;20460;-60
2021/05/11 03:41:27;;;;;;;26.45;9.50;;;;;;;12.41;71.15;100693.75;5093397;28;20494;-60
2021/05/11 03:43:58;;;;;;;26.33;9.10;;;;;;;12.39;71.14;100691.09;5104894;28;20539;-64
2021/05/11 03:46:23;;;;;;;24.17;8.88;;;;;;;12.46;70.54;100692.84;5102449;28;20382;-64
2021/05/11 03:48:48;;;;;;;26.00;9.80;;;;;;;12.46;70.44;100691.97;5104170;28;20099;-63
2021/05/11 03:51:15;;;;;;;25.48;8.57;;;;;;;12.49;70.27;100692.81;5103618;28;20027;-65
2021/05/11 03:53:41;;;;;;;25.67;9.00;;;;;;;12.53;70.22;100699.88;5101685;28;20441;-63
2021/05/11 03:56:06;;;;;;;28.08;9.23;;;;;;;12.51;69.84;100701.66;5104457;28;20024;-66
2021/05/11 03:58:32;;;;;;;25.35;9.07;;;;;;;12.53;69.68;100699.88;5101704;28;20049;-64
2021/05/11 04:00:57;;;;;;;24.27;9.25;;;;;;;12.53;69.35;100694.56;5104863;28;20027;-65
2021/05/11 04:03:23;;;;;;;25.15;9.48;;;;;;;12.55;71.56;100698.09;5100869;28;20035;-65
2021/05/11 04:05:50;;;;;;;25.77;10.00;;;;;;;12.54;72.13;100698.13;5103758;28;20028;-66
2021/05/11 04:08:28;;;;;;;24.38;8.57;;;;;;;12.55;70.22;100713.13;5102923;27;20431;-66
2021/05/11 04:10:56;;;;;;;27.98;9.60;;;;;;;12.55;71.55;100716.66;5104830;28;20475;-67
2021/05/11 04:13:38;;;;;;;27.05;9.85;;;;;;;12.51;73.59;100712.28;5101805;28;20535;-65
2021/05/11 04:18:44;;;;;;;27.48;9.90;;;;;;;12.51;73.29;100717.56;5103271;28;20034;-64
2021/05/11 04:21:10;;;;;;;26.20;9.85;;;;;;;12.54;72.64;100717.56;5102371;28;20391;-65
2021/05/11 04:23:35;;;;;;;29.35;10.65;;;;;;;12.45;73.69;100709.66;5104262;28;20470;-67
2021/05/11 04:26:00;;;;;;;27.50;10.38;;;;;;;12.54;74.69;100704.28;5101358;28;20099;-66
2021/05/11 04:28:27;;;;;;;28.63;10.68;;;;;;;12.53;74.42;100702.53;5105006;28;20031;-66
2021/05/11 04:30:52;;;;;;;26.17;10.30;;;;;;;12.51;74.43;100709.63;5102076;28;20028;-64
2021/05/11 04:33:17;;;;;;;29.48;10.90;;;;;;;12.47;74.57;100714.94;5103814;28;20130;-65
2021/05/11 04:35:43;;;;;;;24.92;10.50;;;;;;;12.43;74.62;100708.78;5103375;28;20019;-63
2021/05/11 04:38:08;;;;;;;27.17;10.70;;;;;;;12.42;74.11;100706.13;5102192;28;20434;-67
2021/05/11 04:40:33;;;;;;;28.95;11.65;;;;;;;12.42;74.03;100714.06;5103832;28;20054;-67
2021/05/11 04:42:59;;;;;;;26.95;10.48;;;;;;;12.40;75.59;100713.22;5101258;28;20028;-65
2021/05/11 04:45:26;;;;;;;27.10;9.90;;;;;;;12.49;75.86;100724.63;5104093;28;20031;-65
2021/05/11 04:47:53;;;;;;;29.95;12.07;;;;;;;12.48;76.95;100725.53;5100446;28;20358;-66
2021/05/11 04:50:20;;;;;;;29.13;11.88;;;;;;;12.55;77.10;100719.31;5103472;28;20028;-65
2021/05/11 04:52:46;;;;;;;26.70;10.45;;;;;;;12.58;73.48;100723.69;5102439;28;20439;-66
2021/05/11 04:55:13;;;;;;;28.92;11.05;;;;;;;12.61;73.34;100722.81;5102307;28;20052;-66
2021/05/11 04:57:40;;;;;;;26.60;10.57;;;;;;;12.59;75.96;100712.22;5103492;28;20474;-65
2021/05/11 05:00:07;;;;;;;25.98;10.88;;;;;;;12.59;76.50;100724.59;5099922;28;20084;-65
2021/05/11 05:02:34;;;;;;;27.27;10.52;;;;;;;12.65;76.89;100724.56;5108188;28;20051;-65
2021/05/11 05:04:59;;;;;;;27.33;10.77;;;;;;;12.65;75.76;100714.81;5105147;28;20085;-64
2021/05/11 05:07:25;;;;;;;28.70;11.10;;;;;;;12.69;74.90;100713.91;5108249;28;20020;-65
2021/05/11 05:09:50;;;;;;;29.42;12.02;;;;;;;12.79;74.80;100722.69;5105973;28;20106;-60
2021/05/11 05:12:15;;;;;;;26.77;11.63;;;;;;;12.80;77.18;100715.63;5106845;28;20024;-60
2021/05/11 05:14:41;;;;;;;30.23;11.48;;;;;;;12.76;78.23;100719.22;5107004;27;20024;-61
2021/05/11 05:17:07;;;;;;;30.17;12.10;;;;;;;12.72;79.16;100723.63;5105501;28;20027;-62
2021/05/11 05:19:34;;;;;;;29.77;11.32;;;;;;;12.72;79.43;100723.63;5099302;28;20505;-61
2021/05/11 05:22:00;;;;;;;28.08;11.65;;;;;;;12.79;78.98;100721.84;5095192;28;20028;-61
2021/05/11 05:24:31;;;;;;;28.52;11.50;;;;;;;12.81;79.59;100722.69;5101255;28;20027;-63
2021/05/11 05:27:01;;;;;;;28.15;11.20;;;;;;;12.91;80.16;100727.91;5093382;28;20020;-62
2021/05/11 05:29:26;;;;;;;28.42;11.35;;;;;;;13.05;78.14;100722.50;5094445;28;20030;-63
2021/05/11 05:31:51;;;;;;;26.75;10.82;;;;;;;13.17;74.85;100724.19;5094872;28;20434;-61
2021/05/11 05:34:17;;;;;;;28.88;11.50;;;;;;;13.29;75.56;100722.31;5095657;28;20016;-60
2021/05/11 05:36:42;;;;;;;30.15;11.50;;;;;;;13.32;74.56;100722.28;5094736;28;20028;-60
2021/05/11 05:39:07;;;;;;;28.27;10.90;;;;;;;13.42;74.31;100721.34;5094840;28;20032;-63
2021/05/11 05:41:34;;;;;;;28.90;10.57;;;;;;;13.51;73.02;100717.72;5094360;28;20115;-61
2021/05/11 05:43:59;;;;;;;27.08;10.45;;;;;;;13.61;71.74;100708.75;5096035;28;20069;-62
2021/05/11 05:46:25;;;;;;;26.98;10.70;;;;;;;13.70;69.50;100710.44;5094435;28;20020;-62
2021/05/11 05:48:50;;;;;;;28.98;10.88;;;;;;;13.73;70.24;100718.38;5094823;28;20032;-62
2021/05/11 05:51:17;;;;;;;31.25;11.15;;;;;;;13.74;71.51;100712.19;5094033;28;20024;-61
2021/05/11 05:53:43;;;;;;;27.38;11.43;;;;;;;13.77;72.09;100712.13;5095137;28;20016;-65
2021/05/11 05:56:16;;;;;;;29.15;11.15;;;;;;;13.82;71.30;100712.09;5097576;28;20444;-62
2021/05/11 05:58:41;;;;;;;28.98;10.95;;;;;;;13.93;71.56;100708.41;5093938;28;20027;-63
2021/05/11 06:01:08;;;;;;;27.77;10.65;;;;;;;14.03;70.72;100701.22;5094982;28;20020;-61
2021/05/11 06:03:49;;;;;;;28.63;11.05;;;;;;;14.18;70.77;100710.75;5095594;28;20102;-66
2021/05/11 06:06:14;;;;;;;32.50;11.18;;;;;;;14.26;70.46;100719.53;5094843;28;20523;-67
2021/05/11 06:08:43;;;;;;;29.95;11.13;;;;;;;14.33;70.42;100715.03;5093975;28;20107;-64
2021/05/11 06:11:20;;;;;;;29.25;11.27;;;;;;;14.43;70.28;100718.41;5094055;28;20078;-66
2021/05/11 06:19:22;;;;;;;29.73;11.18;;;;;;;14.68;68.33;100715.44;5056513;28;20036;-63
2021/05/11 06:21:47;;;;;;;28.20;10.90;;;;;;;14.66;69.01;100722.59;5053875;28;20037;-64
2021/05/11 06:24:13;;;;;;;29.83;11.32;;;;;;;14.61;67.64;100720.88;5052528;28;20021;-63
2021/05/11 06:26:38;;;;;;;28.75;11.30;;;;;;;14.65;68.49;100711.06;5052505;28;20060;-63
2021/05/11 06:29:06;;;;;;;31.00;11.30;;;;;;;14.78;67.94;100712.66;5050670;28;20040;-63
2021/05/11 06:31:32;;;;;;;29.75;11.48;;;;;;;14.92;66.54;100715.06;5055425;28;20025;-63
2021/05/11 06:33:57;;;;;;;30.50;10.95;;;;;;;14.91;67.50;100713.34;5052379;28;20037;-62
2021/05/11 06:36:23;;;;;;;28.48;10.50;;;;;;;15.02;65.71;100699.84;5049473;28;20102;-63
2021/05/11 06:38:48;;;;;;;28.05;10.93;;;;;;;14.82;65.88;100698.41;5052726;28;20126;-63
2021/05/11 06:41:14;;;;;;;28.95;10.10;;;;;;;14.78;66.73;100706.44;5050577;28;20044;-63
2021/05/11 06:43:42;;;;;;;27.98;10.38;;;;;;;14.76;65.83;100703.78;5056405;28;20028;-63
2021/05/11 06:54:11;;;;;;;28.05;9.48;;;;;;;15.01;64.40;100691.91;5010456;28;20033;-63
2021/05/11 06:56:38;;;;;;;27.35;9.57;;;;;;;15.06;64.04;100692.72;5029011;28;20504;-63
2021/05/11 06:59:03;;;;;;;28.15;9.90;;;;;;;15.10;63.96;100692.63;5023694;28;20064;-62
2021/05/11 07:01:29;;;;;;;27.08;9.63;;;;;;;15.20;63.34;100690.66;5030230;28;20057;-62
2021/05/11 07:03:54;;;;;;;26.35;9.70;;;;;;;15.23;62.52;100697.72;5030650;28;20077;-62
2021/05/11 07:06:20;;;;;;;26.63;9.45;;;;;;;15.28;63.21;100694.09;5013889;28;20038;-63
2021/05/11 07:11:28;;;;;;;25.80;8.20;;;;;;;15.52;61.46;100697.19;5029831;28;20037;-62
2021/05/11 07:13:53;;;;;;;26.92;8.80;;;;;;;15.63;60.27;100691.69;5029915;28;20046;-62
2021/05/11 07:16:19;;;;;;;27.52;8.80;;;;;;;15.78;60.54;100687.84;5029608;28;20029;-64
2021/05/11 07:18:45;;;;;;;25.05;8.75;;;;;;;15.97;59.38;100683.06;5030117;28;20048;-64
2021/05/11 07:21:10;;;;;;;25.40;8.20;;;;;;;16.15;60.18;100679.13;5029588;28;20487;-64
2021/05/11 07:23:35;;;;;;;23.73;7.15;;;;;;;16.20;57.53;100682.56;5028798;28;20068;-63
2021/05/11 07:31:14;;;;;;;24.52;7.00;;;;;;;16.54;55.84;100681.81;5104138;28;20093;-63
2021/05/11 07:33:48;;;;;;;23.80;6.70;;;;;;;16.66;56.18;100684.22;5103587;28;20120;-64
2021/05/11 07:36:14;;;;;;;23.30;6.70;;;;;;;17.02;55.07;100678.03;5099934;28;20109;-63
2021/05/11 07:38:40;;;;;;;24.15;6.97;;;;;;;17.20;54.64;100687.41;5091860;28;20028;-64
2021/05/11 07:41:07;;;;;;;20.83;5.93;;;;;;;17.12;53.69;100689.38;5093208;28;20403;-71
2021/05/11 07:43:36;;;;;;;23.15;6.82;;;;;;;17.03;54.85;100686.00;5093592;28;20024;-71
2021/05/11 08:04:52;;;;;;;23.20;5.70;;;;;;;16.70;54.58;100693.91;5097367;28;20086;-67
2021/05/11 08:15:27;;;;;;;25.00;5.60;;;;;;;16.58;55.87;100696.84;5103230;28;20042;-70
2021/05/11 08:21:53;;;;;;;22.55;5.05;;;;;;;16.36;53.88;100705.31;5022388;28;20053;-69
2021/05/11 08:28:51;;;;;;;23.05;5.80;;;;;;;16.03;56.44;100712.25;5021135;28;20103;-70
2021/05/11 08:31:16;;;;;;;26.38;6.30;;;;;;;15.96;56.57;100716.84;5019676;28;20042;-73
2021/05/11 08:33:42;;;;;;;23.55;5.75;;;;;;;15.85;56.77;100718.84;5021876;28;20053;-72
2021/05/11 08:36:07;;;;;;;24.05;6.32;;;;;;;15.67;57.67;100712.06;5022527;28;20498;-64
2021/05/11 08:38:33;;;;;;;24.50;7.03;;;;;;;15.53;59.95;100728.28;5028563;28;20040;-64
2021/05/11 08:40:58;;;;;;;23.92;6.82;;;;;;;15.42;61.20;100725.81;5028094;28;20553;-71
2021/05/11 08:43:32;;;;;;;24.55;7.05;;;;;;;15.30;62.15;100721.59;5028949;28;20037;-68
2021/05/11 08:46:03;;;;;;;27.60;7.72;;;;;;;15.24;63.06;100721.66;5028426;28;20159;-63
2021/05/11 08:48:30;;;;;;;26.05;8.85;;;;;;;15.19;64.07;100720.88;5028315;28;20480;-62
2021/05/11 09:29:09;;;;;;;28.63;11.05;;;;;;;15.88;64.76;100752.56;5047104;28;20037;-64
2021/05/11 09:31:55;;;;;;;30.08;11.27;;;;;;;16.00;64.65;100762.97;5049040;28;20125;-65
2021/05/11 09:34:47;;;;;;;27.20;10.48;;;;;;;16.07;61.85;100761.06;5048423;28;20500;-64
2021/05/11 10:48:18;;;;;;;28.63;12.32;;;;;;;24.05;40.49;100663.91;5041558;28;20060;-66
2021/05/11 10:50:50;;;;;;;29.02;11.93;;;;;;;25.22;39.01;100657.22;5032224;28;20025;-66
2021/05/11 10:53:35;;;;;;;31.20;11.98;;;;;;;26.55;35.53;100636.31;5037530;28;20111;-65
2021/05/11 11:01:46;;;;;;;26.00;9.60;;;;;;;26.70;31.42;100656.13;5094672;28;20542;-68
2021/05/11 11:04:23;;;;;;;26.30;9.80;;;;;;;25.36;36.11;100646.47;5093115;28;20115;-65
2021/05/11 11:06:58;;;;;;;26.02;10.15;;;;;;;23.88;36.25;100657.59;5090271;28;20032;-64
2021/05/11 11:09:31;;;;;;;26.13;8.80;;;;;;;23.07;38.85;100658.16;5086776;28;20056;-64
2021/05/11 11:11:58;;;;;;;25.48;8.82;;;;;;;21.97;39.42;100658.97;5089591;28;20081;-64
2021/05/11 11:14:25;;;;;;;24.73;8.90;;;;;;;21.57;40.41;100648.22;5092176;28;20024;-64
2021/05/11 11:17:02;;;;;;;22.10;6.57;;;;;;;21.35;41.07;100653.63;5088367;28;20024;-65
2021/05/11 11:19:27;;;;;;;21.88;6.40;;;;;;;21.17;40.56;100661.56;5087123;28;20032;-64
2021/05/11 11:24:28;;;;;;;25.38;7.53;;;;;;;20.17;43.54;100668.25;5089584;28;20038;-64
2021/05/11 11:26:55;;;;;;;23.33;7.32;;;;;;;19.66;43.85;100678.16;5090831;28;20496;-64
2021/05/11 11:29:21;;;;;;;27.30;9.10;;;;;;;19.36;44.65;100680.97;5092801;28;20051;-65
2021/05/11 11:31:47;;;;;;;25.77;8.23;;;;;;;18.93;45.90;100677.06;5092429;28;20032;-65
2021/05/11 11:34:21;;;;;;;23.48;7.00;;;;;;;18.82;45.61;100680.94;5092000;28;20554;-63
2021/05/11 11:36:51;;;;;;;22.17;7.32;;;;;;;18.72;45.72;100684.84;5092255;28;20056;-63
2021/05/11 11:39:22;;;;;;;25.02;8.13;;;;;;;18.58;47.11;100685.28;5091775;28;20020;-64
2021/05/11 11:41:49;;;;;;;24.85;7.60;;;;;;;18.54;47.75;100682.78;5093474;28;20068;-64
2021/05/11 11:44:19;;;;;;;25.85;8.63;;;;;;;18.66;48.18;100685.03;5091445;28;20028;-64
2021/05/11 11:47:03;;;;;;;26.48;9.07;;;;;;;18.54;48.08;100688.97;5090254;28;20028;-65
2021/05/11 11:49:31;;;;;;;27.13;8.93;;;;;;;18.53;48.01;100684.53;5090073;28;20035;-65
2021/05/11 11:52:03;;;;;;;24.98;9.63;;;;;;;18.68;49.43;100690.34;5093667;28;20593;-65
2021/05/11 11:54:44;;;;;;;28.92;9.98;;;;;;;18.76;49.03;100680.28;5093472;28;20069;-63
2021/05/11 11:57:48;;;;;;;27.88;9.85;;;;;;;18.95;49.79;100677.91;5095372;28;20024;-64
2021/05/11 12:00:15;;;;;;;26.42;8.10;;;;;;;19.08;47.59;100679.25;5095813;28;20031;-65
2021/05/11 12:03:00;;;;;;;25.00;8.13;;;;;;;19.39;47.67;100682.69;5093804;28;20059;-63
2021/05/11 12:05:36;;;;;;;23.58;8.15;;;;;;;19.50;46.39;100686.72;5089109;28;20072;-65
2021/05/11 12:08:25;;;;;;;25.90;8.27;;;;;;;19.77;46.73;100683.97;5090670;28;20462;-66
2021/05/11 12:10:57;;;;;;;25.00;8.48;;;;;;;20.16;46.18;100690.66;5089172;28;20020;-64
2021/05/11 12:13:26;;;;;;;24.63;9.07;;;;;;;20.55;44.88;100680.16;5087500;28;20035;-65
2021/05/11 12:16:12;;;;;;;25.45;8.63;;;;;;;21.03;43.55;100686.31;5086404;28;20016;-65
2021/05/11 12:18:44;;;;;;;27.40;9.18;;;;;;;21.25;43.13;100688.97;5091923;28;20016;-64
2021/05/11 12:21:10;;;;;;;25.10;10.13;;;;;;;21.32;43.25;100689.59;5093804;28;20047;-67
2021/05/11 12:23:36;;;;;;;27.23;10.65;;;;;;;20.91;43.56;100694.88;5091118;28;20024;-65
2021/05/11 12:26:07;;;;;;;26.67;10.63;;;;;;;20.70;43.95;100688.56;5087332;28;20348;-66
2021/05/11 12:28:34;;;;;;;26.88;10.40;;;;;;;21.04;44.33;100688.06;5087215;28;20024;-65
2021/05/11 12:31:00;;;;;;;28.58;10.98;;;;;;;21.39;43.62;100690.19;5086835;28;20352;-64
2021/05/11 12:33:40;;;;;;;29.05;10.77;;;;;;;21.54;43.27;100688.69;5090971;28;20024;-65
2021/05/11 12:36:17;;;;;;;27.25;10.18;;;;;;;21.45;43.49;100687.25;5087683;28;20047;-64
2021/05/11 12:38:43;;;;;;;27.02;10.43;;;;;;;21.27;43.42;100683.53;5088254;28;20413;-64
2021/05/11 12:41:15;;;;;;;24.67;9.93;;;;;;;21.05;42.06;100689.78;5090948;28;20027;-65
2021/05/11 12:43:44;;;;;;;30.08;10.73;;;;;;;20.64;44.06;100699.53;5091925;28;20107;-64
2021/05/11 12:46:21;;;;;;;28.05;10.27;;;;;;;20.29;44.70;100704.47;5092688;28;20032;-64
2021/05/11 12:48:58;;;;;;;28.30;10.18;;;;;;;20.49;44.99;100695.63;5091807;28;20434;-64
2021/05/11 12:51:39;;;;;;;27.02;10.43;;;;;;;20.74;45.45;100698.25;5091072;28;20024;-64
2021/05/11 12:54:44;;;;;;;28.00;10.05;;;;;;;21.27;44.56;100690.72;5091154;28;20091;-64
2021/05/11 12:57:23;;;;;;;25.48;9.80;;;;;;;21.41;44.07;100683.81;5093061;28;20020;-64
2021/05/11 13:28:05;;;;;;;26.27;9.73;;;;;;;19.33;48.04;100695.34;5102676;28;20062;-64
2021/05/11 13:33:15;;;;;;;26.88;9.75;;;;;;;19.14;49.20;100702.28;5031588;28;20091;-64
2021/05/11 13:35:41;;;;;;;25.40;9.43;;;;;;;18.94;49.30;100697.56;5033390;28;20550;-64
2021/05/11 13:38:06;;;;;;;25.10;8.70;;;;;;;18.97;50.05;100702.81;5033696;28;20124;-64
2021/05/11 13:40:33;;;;;;;25.30;8.27;;;;;;;19.01;50.25;100707.16;5033441;28;20038;-66
2021/05/11 13:42:59;;;;;;;26.45;8.88;;;;;;;19.02;49.28;100708.03;5033441;28;20053;-64
2021/05/11 13:45:25;;;;;;;25.40;9.25;;;;;;;18.92;49.81;100708.34;5033561;28;20045;-64
2021/05/11 13:48:10;;;;;;;26.40;9.70;;;;;;;18.95;49.58;100707.38;5033275;28;20026;-64
2021/05/11 13:53:06;;;;;;;26.52;9.18;;;;;;;18.81;49.70;100695.28;5033482;28;20048;-65
2021/05/11 13:55:43;;;;;;;27.70;9.50;;;;;;;18.80;51.22;100688.16;5033372;28;20472;-64
2021/05/11 14:03:36;;;;;;;27.67;9.00;;;;;;;18.63;52.43;100643.19;5026600;28;20389;-64
2021/05/11 14:06:01;;;;;;;25.42;8.88;;;;;;;18.75;50.69;100641.91;5033021;28;20021;-65
2021/05/11 14:08:27;;;;;;;25.83;9.25;;;;;;;19.00;51.32;100654.50;5033246;28;20439;-66
2021/05/11 14:10:52;;;;;;;27.20;8.80;;;;;;;19.01;49.39;100666.13;5090674;28;20039;-65
2021/05/11 14:13:18;;;;;;;23.30;8.95;;;;;;;18.83;49.81;100676.47;5101814;28;20455;-64
2021/05/11 14:15:43;;;;;;;23.70;9.05;;;;;;;19.05;50.45;100684.72;5094121;28;20016;-64
2021/05/11 14:18:08;;;;;;;26.80;9.70;;;;;;;19.23;51.07;100695.72;5097193;28;20394;-64
2021/05/11 14:20:34;;;;;;;26.00;9.15;;;;;;;19.21;49.21;100702.91;5076911;28;20375;-63
2021/05/11 14:22:59;;;;;;;27.05;9.65;;;;;;;18.89;49.71;100704.91;5094690;28;20016;-64
2021/05/11 14:25:24;;;;;;;25.10;9.02;;;;;;;18.82;50.05;100699.69;5087009;28;20028;-65
2021/05/11 14:27:50;;;;;;;26.38;9.32;;;;;;;18.83;50.60;100700.56;5094318;28;20149;-64
2021/05/11 14:30:16;;;;;;;24.30;9.23;;;;;;;18.87;51.57;100696.00;5091094;28;20052;-65
2021/05/11 14:32:41;;;;;;;25.73;9.15;;;;;;;18.82;50.94;100702.34;5088828;28;20482;-64
2021/05/11 14:35:07;;;;;;;25.70;8.38;;;;;;;18.90;50.31;100704.84;5093609;28;20133;-64
2021/05/11 14:37:33;;;;;;;27.38;8.93;;;;;;;18.85;50.17;100695.16;5092788;28;20064;-64
2021/05/11 14:39:58;;;;;;;24.95;8.20;;;;;;;18.81;49.66;100697.94;5093170;28;20113;-64
2021/05/11 14:42:23;;;;;;;26.42;9.00;;;;;;;18.91;49.21;100686.97;5093143;28;20046;-67
2021/05/11 14:44:52;;;;;;;25.73;9.20;;;;;;;19.13;49.06;100684.44;5094360;28;20042;-63
2021/05/11 14:47:18;;;;;;;26.95;8.40;;;;;;;19.43;49.40;100695.91;5094576;28;20099;-64
2021/05/11 14:49:43;;;;;;;24.05;8.98;;;;;;;19.67;47.50;100695.97;5090290;28;20102;-64
2021/05/11 14:52:12;;;;;;;26.40;8.80;;;;;;;19.91;47.87;100690.69;5095714;28;20024;-64
2021/05/11 14:54:37;;;;;;;27.10;9.70;;;;;;;20.05;46.77;100700.91;5086158;28;20017;-63
2021/05/11 14:57:03;;;;;;;25.95;9.02;;;;;;;20.36;48.31;100697.94;5092964;28;20022;-63
2021/05/11 14:59:28;;;;;;;25.45;9.50;;;;;;;21.03;46.94;100690.81;5087161;28;20033;-63
2021/05/11 15:01:53;;;;;;;26.15;9.52;;;;;;;21.35;44.31;100702.03;5093415;28;20048;-63
2021/05/11 15:04:19;;;;;;;25.73;9.85;;;;;;;21.46;43.65;100710.47;5096453;28;20020;-63
2021/05/11 15:06:44;;;;;;;25.35;9.07;;;;;;;21.68;44.18;100709.59;5092731;28;20103;-64
2021/05/11 15:09:09;;;;;;;28.55;11.35;;;;;;;21.76;43.15;100710.13;5089681;28;20474;-65
2021/05/11 15:11:35;;;;;;;28.70;11.32;;;;;;;21.86;41.75;100698.00;5083330;28;20052;-63
2021/05/11 15:14:01;;;;;;;25.30;10.30;;;;;;;22.25;42.64;100694.44;5097238;28;20017;-64
2021/05/11 15:16:27;;;;;;;27.75;10.25;;;;;;;22.32;41.11;100691.44;5085736;28;20032;-63
2021/05/11 15:18:53;;;;;;;26.08;10.50;;;;;;;22.35;40.50;100686.81;5089457;28;20028;-63
2021/05/11 15:21:18;;;;;;;27.25;10.00;;;;;;;23.53;39.17;100681.91;5091911;28;20051;-63
2021/05/11 15:23:47;;;;;;;28.55;9.93;;;;;;;24.58;37.16;100687.06;5092025;28;20020;-63
2021/05/11 15:26:13;;;;;;;23.35;8.60;;;;;;;25.44;35.60;100683.03;5092397;28;20035;-63
2021/05/11 15:28:39;;;;;;;24.83;8.27;;;;;;;26.63;32.94;100690.00;5092768;28;21538;-63
2021/05/11 15:31:05;;;;;;;26.05;8.88;;;;;;;26.54;32.74;100685.19;5093422;28;20074;-64
2021/05/11 15:33:31;;;;;;;25.38;8.30;;;;;;;25.29;34.67;100692.91;5092344;28;20391;-64
2021/05/11 15:35:58;;;;;;;24.02;7.45;;;;;;;23.68;36.92;100694.59;5092392;28;20459;-64
2021/05/11 15:38:25;;;;;;;24.58;8.77;;;;;;;22.23;39.14;100693.63;5092044;28;20051;-64
2021/05/11 15:40:50;;;;;;;25.27;9.50;;;;;;;21.33;40.21;100699.38;5093332;28;20036;-74
2021/05/11 15:43:16;;;;;;;25.42;9.40;;;;;;;20.54;42.77;100702.56;5095739;28;20570;-75
2021/05/11 15:45:41;;;;;;;25.38;8.43;;;;;;;20.16;43.28;100706.75;5103043;28;20485;-74
2021/05/11 15:48:09;;;;;;;26.10;8.35;;;;;;;20.22;44.00;100697.59;5102298;28;20077;-75
2021/05/11 15:50:39;;;;;;;24.17;9.10;;;;;;;20.18;44.00;100699.50;5104521;28;20106;-73